createdAt,value
2018-10-18T00:00:11.331Z,75.07
2018-10-18T00:02:53.543Z,74.80
2018-10-18T00:05:43.682Z,74.83
2018-10-18T00:08:19.288Z,72.13
2018-10-18T00:10:54.935Z,67.20
2018-10-18T00:13:30.940Z,83.87
2018-10-18T00:16:06.551Z,62.33
2018-10-18T00:18:42.167Z,72.30
2018-10-18T00:21:18.204Z,79.63
2018-10-18T00:23:53.752Z,80.43
2018-10-18T00:26:29.364Z,70.73
2018-10-18T00:29:05.451Z,66.00
2018-10-18T00:31:40.969Z,69.33
2018-10-18T00:34:16.530Z,86.87
2018-10-18T00:36:52.122Z,74.10
2018-10-18T00:39:27.858Z,83.17
2018-10-18T00:42:03.653Z,64.10
2018-10-18T00:44:39.368Z,68.10
2018-10-18T00:47:14.937Z,70.50
2018-10-18T00:49:50.797Z,72.37
2018-10-18T00:52:26.318Z,69.20
2018-10-18T00:55:02.049Z,64.07
2018-10-18T00:57:37.751Z,76.20
2018-10-18T01:03:09.948Z,82.80
2018-10-18T01:05:45.537Z,65.50
2018-10-18T01:08:21.348Z,66.30
2018-10-18T01:10:56.994Z,70.53
2018-10-18T01:13:32.475Z,67.30
2018-10-18T01:16:08.228Z,69.60
2018-10-18T01:18:44.081Z,68.40
2018-10-18T01:21:19.883Z,71.20
2018-10-18T01:23:55.530Z,74.77
2018-10-18T01:26:31.440Z,69.50
2018-10-18T01:29:07.108Z,80.00
2018-10-18T01:31:42.702Z,78.43
2018-10-18T01:34:18.490Z,72.70
2018-10-18T01:36:54.013Z,72.97
2018-10-18T01:39:30.128Z,72.97
2018-10-18T01:42:06.554Z,70.70
2018-10-18T01:44:42.127Z,72.00
2018-10-18T01:47:18.029Z,68.23
2018-10-18T01:49:53.519Z,78.03
2018-10-18T01:52:29.222Z,70.67
2018-10-18T01:55:05.918Z,77.10
2018-10-18T01:57:41.349Z,78.63
2018-10-18T02:00:29.386Z,83.60
2018-10-18T02:03:05.118Z,78.27
2018-10-18T02:05:41.856Z,74.60
2018-10-18T02:08:17.558Z,80.17
2018-10-18T02:10:53.189Z,81.67
2018-10-18T02:13:28.815Z,72.07
2018-10-18T02:16:05.257Z,77.83
2018-10-18T02:18:40.633Z,75.73
2018-10-18T02:21:16.302Z,76.33
2018-10-18T02:23:52.220Z,77.17
2018-10-18T02:26:27.914Z,77.10
2018-10-18T02:29:03.746Z,75.63
2018-10-18T02:31:39.104Z,70.70
2018-10-18T02:34:14.832Z,75.10
2018-10-18T02:36:50.543Z,72.07
2018-10-18T02:39:25.988Z,76.50
2018-10-18T02:42:02.507Z,69.10
2018-10-18T02:44:38.253Z,81.40
2018-10-18T02:47:13.810Z,85.97
2018-10-18T02:49:49.407Z,72.47
2018-10-18T02:52:25.340Z,77.13
2018-10-18T02:55:01.075Z,81.73
2018-10-18T02:57:36.612Z,80.87
2018-10-18T03:03:02.032Z,78.27
2018-10-18T03:05:37.555Z,81.33
2018-10-18T03:08:12.884Z,83.30
2018-10-18T03:10:48.629Z,86.00
2018-10-18T03:13:31.243Z,84.93
2018-10-18T03:16:08.218Z,85.13
2018-10-18T03:18:44.029Z,85.63
2018-10-18T03:21:19.797Z,89.20
2018-10-18T03:23:55.558Z,87.33
2018-10-18T03:26:31.604Z,97.40
2018-10-18T03:29:07.017Z,91.93
2018-10-18T03:31:42.816Z,91.80
2018-10-18T03:34:18.820Z,83.13
2018-10-18T03:36:55.463Z,95.33
2018-10-18T03:39:31.328Z,93.70
2018-10-18T03:42:07.135Z,99.10
2018-10-18T03:44:43.084Z,98.13
2018-10-18T03:47:18.597Z,96.50
2018-10-18T03:49:54.146Z,98.67
2018-10-18T03:52:29.575Z,100.70
2018-10-18T03:55:06.421Z,91.37
2018-10-18T03:57:42.053Z,102.97
2018-10-18T04:00:39.928Z,101.00
2018-10-18T04:03:15.454Z,100.17
2018-10-18T04:05:51.262Z,106.50
2018-10-18T04:08:26.980Z,101.47
2018-10-18T04:11:02.494Z,100.67
2018-10-18T04:13:37.997Z,107.17
2018-10-18T04:16:13.598Z,106.00
2018-10-18T04:18:49.193Z,106.70
2018-10-18T04:21:24.814Z,96.20
2018-10-18T04:24:00.455Z,101.00
2018-10-18T04:26:36.332Z,107.43
2018-10-18T04:29:11.954Z,126.03
2018-10-18T04:31:47.556Z,108.27
2018-10-18T04:34:23.326Z,118.87
2018-10-18T04:36:59.362Z,109.43
2018-10-18T04:39:35.140Z,119.97
2018-10-18T04:42:10.563Z,127.33
2018-10-18T04:44:46.389Z,117.97
2018-10-18T04:47:21.961Z,112.70
2018-10-18T04:49:57.816Z,120.43
2018-10-18T04:52:33.252Z,115.73
2018-10-18T04:55:08.918Z,129.87
2018-10-18T04:57:47.882Z,124.37
2018-10-18T05:00:33.253Z,128.73
2018-10-18T05:03:08.623Z,123.23
2018-10-18T05:05:56.936Z,131.93
2018-10-18T05:08:32.620Z,127.07
2018-10-18T05:11:08.139Z,129.10
2018-10-18T05:13:43.930Z,125.30
2018-10-18T05:16:19.424Z,134.20
2018-10-18T05:18:55.095Z,145.07
2018-10-18T05:21:31.148Z,130.32
2018-10-18T05:24:06.954Z,126.47
2018-10-18T05:26:42.856Z,129.53
2018-10-18T05:29:18.351Z,139.00
2018-10-18T05:31:53.829Z,132.57
2018-10-18T05:34:29.409Z,128.80
2018-10-18T05:37:05.076Z,134.27
2018-10-18T05:39:40.767Z,133.33
2018-10-18T05:42:16.497Z,148.30
2018-10-18T05:44:52.472Z,142.97
2018-10-18T05:47:28.031Z,129.03
2018-10-18T05:50:03.816Z,136.00
2018-10-18T05:52:39.978Z,148.10
2018-10-18T05:58:06.368Z,132.60
2018-10-18T06:00:42.173Z,137.73
2018-10-18T06:03:17.972Z,141.80
2018-10-18T06:05:53.749Z,146.77
2018-10-18T06:08:29.572Z,141.37
2018-10-18T06:11:16.230Z,142.77
2018-10-18T06:13:52.404Z,141.53
2018-10-18T06:16:28.519Z,135.27
2018-10-18T06:19:04.025Z,146.30
2018-10-18T06:21:39.857Z,141.77
2018-10-18T06:24:15.627Z,147.60
2018-10-18T06:26:51.076Z,154.67
2018-10-18T06:29:26.906Z,146.60
2018-10-18T06:32:02.752Z,145.73
2018-10-18T06:34:39.213Z,145.33
2018-10-18T06:37:14.740Z,144.03
2018-10-18T06:39:50.518Z,157.00
2018-10-18T06:42:26.467Z,138.17
2018-10-18T06:45:02.138Z,155.67
2018-10-18T06:47:37.995Z,144.30
2018-10-18T06:53:01.149Z,140.87
2018-10-18T06:55:52.788Z,144.63
2018-10-18T06:58:28.422Z,144.90
2018-10-18T07:01:04.336Z,154.73
2018-10-18T07:03:39.912Z,155.87
2018-10-18T07:06:15.568Z,146.60
2018-10-18T07:08:51.706Z,155.23
2018-10-18T07:11:27.478Z,163.80
2018-10-18T07:14:03.198Z,160.63
2018-10-18T07:16:38.938Z,160.97
2018-10-18T07:19:14.625Z,168.33
2018-10-18T07:21:50.113Z,159.20
2018-10-18T07:24:25.895Z,173.67
2018-10-18T07:27:02.021Z,158.37
2018-10-18T07:29:37.988Z,159.00
2018-10-18T07:32:13.881Z,164.37
2018-10-18T07:34:49.648Z,165.67
2018-10-18T07:37:25.866Z,161.43
2018-10-18T07:40:01.628Z,161.03
2018-10-18T07:42:37.355Z,163.60
2018-10-18T07:45:15.804Z,166.70
2018-10-18T07:48:01.676Z,165.70
2018-10-18T07:50:39.778Z,172.87
2018-10-18T07:53:15.781Z,165.33
2018-10-18T07:55:51.616Z,156.63
2018-10-18T07:58:27.448Z,159.03
2018-10-18T08:01:02.956Z,152.50
2018-10-18T08:03:38.761Z,151.67
2018-10-18T08:09:52.423Z,144.03
2018-10-18T08:12:28.768Z,139.30
2018-10-18T08:15:05.704Z,142.07
2018-10-18T08:17:41.962Z,144.33
2018-10-18T08:23:19.519Z,125.83
2018-10-18T08:25:55.083Z,133.60
2018-10-18T08:28:30.824Z,136.23
2018-10-18T08:31:06.503Z,122.73
2018-10-18T08:33:42.241Z,126.63
2018-10-18T08:36:18.004Z,124.90
2018-10-18T08:38:53.456Z,132.53
2018-10-18T08:41:29.144Z,119.10
2018-10-18T08:44:05.110Z,134.77
2018-10-18T08:46:40.944Z,130.23
2018-10-18T08:49:16.494Z,127.70
2018-10-18T08:51:52.344Z,119.83
2018-10-18T08:54:28.147Z,124.83
2018-10-18T08:57:04.029Z,118.97
2018-10-18T08:59:39.639Z,126.77
2018-10-18T09:02:15.245Z,123.57
2018-10-18T09:04:50.690Z,128.50
2018-10-18T09:07:26.332Z,112.20
2018-10-18T09:10:02.073Z,121.67
2018-10-18T09:12:37.928Z,108.63
2018-10-18T09:15:13.985Z,100.87
2018-10-18T09:17:56.154Z,93.93
2018-10-18T09:20:38.222Z,111.73
2018-10-18T09:23:13.628Z,89.47
2018-10-18T09:25:49.112Z,100.83
2018-10-18T09:28:24.684Z,84.67
2018-10-18T09:31:00.312Z,77.57
2018-10-18T09:33:36.034Z,85.60
2018-10-18T09:36:11.562Z,73.50
2018-10-18T09:38:47.044Z,91.50
2018-10-18T09:41:22.986Z,84.53
2018-10-18T09:43:58.737Z,88.67
2018-10-18T09:46:35.300Z,83.47
2018-10-18T09:49:10.850Z,76.70
2018-10-18T09:51:46.724Z,67.10
2018-10-18T09:54:22.356Z,73.53
2018-10-18T09:56:57.928Z,64.73
2018-10-18T09:59:33.385Z,66.33
2018-10-18T10:02:14.188Z,72.70
2018-10-18T10:04:49.789Z,70.43
2018-10-18T10:07:25.251Z,63.70
2018-10-18T10:10:00.893Z,62.17
2018-10-18T10:12:36.591Z,64.70
2018-10-18T10:15:12.147Z,69.20
2018-10-18T10:17:53.155Z,70.07
2018-10-18T10:20:31.140Z,59.83
2018-10-18T10:23:17.945Z,56.43
2018-10-18T10:25:53.720Z,61.43
2018-10-18T10:28:29.552Z,61.43
2018-10-18T10:31:07.359Z,53.97
2018-10-18T10:33:43.190Z,69.93
2018-10-18T10:36:18.823Z,58.40
2018-10-18T10:38:54.427Z,59.63
2018-10-18T10:41:30.152Z,79.33
2018-10-18T10:44:08.674Z,54.13
2018-10-18T10:46:44.388Z,56.07
2018-10-18T10:49:20.183Z,65.53
2018-10-18T10:51:56.031Z,63.80
2018-10-18T10:54:31.986Z,71.67
2018-10-18T10:57:07.825Z,77.60
2018-10-18T10:59:43.681Z,70.90
2018-10-18T11:02:19.176Z,70.67
2018-10-18T11:04:54.713Z,57.03
2018-10-18T11:07:30.374Z,62.43
2018-10-18T11:10:06.852Z,46.50
2018-10-18T11:12:42.539Z,60.60
2018-10-18T11:15:30.224Z,67.27
2018-10-18T11:18:06.425Z,67.43
2018-10-18T11:20:42.273Z,62.10
2018-10-18T11:23:18.065Z,60.40
2018-10-18T11:25:58.590Z,61.73
2018-10-18T11:28:34.528Z,63.63
2018-10-18T11:31:10.109Z,60.87
2018-10-18T11:33:46.414Z,69.70
2018-10-18T11:36:21.917Z,57.77
2018-10-18T11:38:57.660Z,66.63
2018-10-18T11:41:33.246Z,55.70
2018-10-18T11:44:08.897Z,57.03
2018-10-18T11:46:44.855Z,56.30
2018-10-18T11:49:20.609Z,58.23
2018-10-18T11:51:56.304Z,68.30
2018-10-18T11:54:32.064Z,75.33
2018-10-18T11:57:07.936Z,77.40
2018-10-18T11:59:43.726Z,83.80
2018-10-18T12:02:19.431Z,68.83
2018-10-18T12:04:55.445Z,80.67
2018-10-18T12:07:31.160Z,86.63
2018-10-18T12:10:08.089Z,86.00
2018-10-18T12:12:43.647Z,93.77
2018-10-18T12:15:31.802Z,92.53
2018-10-18T12:18:07.355Z,84.50
2018-10-18T12:20:43.051Z,102.53
2018-10-18T12:23:18.629Z,77.90
2018-10-18T12:25:54.693Z,86.80
2018-10-18T12:28:30.721Z,84.27
2018-10-18T12:31:06.685Z,89.17
2018-10-18T12:33:42.529Z,96.00
2018-10-18T12:36:18.447Z,92.47
2018-10-18T12:38:54.178Z,85.23
2018-10-18T12:41:29.773Z,77.13
2018-10-18T12:44:05.575Z,98.87
2018-10-18T12:46:41.310Z,79.77
2018-10-18T12:49:17.001Z,86.03
2018-10-18T12:51:52.713Z,84.13
2018-10-18T12:54:28.517Z,80.90
2018-10-18T12:57:04.324Z,80.73
2018-10-18T12:59:40.324Z,91.67
2018-10-18T13:02:16.148Z,77.07
2018-10-18T13:04:51.961Z,79.23
2018-10-18T13:07:27.561Z,75.23
2018-10-18T13:10:03.406Z,89.33
2018-10-18T13:12:39.448Z,88.30
2018-10-18T13:15:15.032Z,79.33
2018-10-18T13:17:56.515Z,70.60
2018-10-18T13:20:34.550Z,69.97
2018-10-18T13:23:24.845Z,75.47
2018-10-18T13:26:00.690Z,71.33
2018-10-18T13:28:36.688Z,87.10
2018-10-18T13:31:12.151Z,74.90
2018-10-18T13:33:47.785Z,78.60
2018-10-18T13:36:23.503Z,72.90
2018-10-18T13:38:59.436Z,71.63
2018-10-18T13:41:35.566Z,71.00
2018-10-18T13:44:11.395Z,85.83
2018-10-18T13:46:46.980Z,69.30
2018-10-18T13:49:22.865Z,71.20
2018-10-18T13:51:58.750Z,64.33
2018-10-18T13:54:34.491Z,71.60
2018-10-18T13:57:09.961Z,85.57
2018-10-18T13:59:56.819Z,71.50
2018-10-18T14:02:32.564Z,76.93
2018-10-18T14:05:08.923Z,79.77
2018-10-18T14:07:52.294Z,67.33
2018-10-18T14:10:34.991Z,66.50
2018-10-18T14:13:10.575Z,80.93
2018-10-18T14:15:46.355Z,83.77
2018-10-18T14:18:22.279Z,69.03
2018-10-18T14:20:57.853Z,95.27
2018-10-18T14:23:33.455Z,73.83
2018-10-18T14:26:09.269Z,75.93
2018-10-18T14:28:44.990Z,70.13
2018-10-18T14:31:20.864Z,82.00
2018-10-18T14:33:56.590Z,77.33
2018-10-18T14:36:32.351Z,78.10
2018-10-18T14:39:09.356Z,66.17
2018-10-18T14:41:45.093Z,80.87
2018-10-18T14:44:20.811Z,87.33
2018-10-18T14:46:56.932Z,86.27
2018-10-18T14:49:33.233Z,84.10
2018-10-18T14:52:08.779Z,85.03
2018-10-18T14:54:44.912Z,73.33
2018-10-18T14:57:20.745Z,69.73
2018-10-18T14:59:56.564Z,68.27
2018-10-18T15:02:32.089Z,75.57
2018-10-18T15:05:09.447Z,76.40
2018-10-18T15:07:50.703Z,79.77
2018-10-18T15:10:39.492Z,74.63
2018-10-18T15:13:15.116Z,77.63
2018-10-18T15:15:51.339Z,69.03
2018-10-18T15:18:26.990Z,70.40
2018-10-18T15:21:02.979Z,68.93
2018-10-18T15:23:38.919Z,67.47
2018-10-18T15:26:14.646Z,70.60
2018-10-18T15:28:50.337Z,63.07
2018-10-18T15:31:26.079Z,73.70
2018-10-18T15:34:01.648Z,79.20
2018-10-18T15:36:37.413Z,70.30
2018-10-18T15:39:13.554Z,70.60
2018-10-18T15:41:49.505Z,61.90
2018-10-18T15:44:25.300Z,56.53
2018-10-18T15:47:01.064Z,61.07
2018-10-18T15:49:36.828Z,75.50
2018-10-18T15:52:12.393Z,67.87
2018-10-18T15:54:48.327Z,82.23
2018-10-18T15:57:24.228Z,80.30
2018-10-18T15:59:59.807Z,77.60
2018-10-18T16:02:35.712Z,74.57
2018-10-18T16:05:11.601Z,108.40
2018-10-18T16:07:53.175Z,90.63
2018-10-18T16:10:34.908Z,86.07
2018-10-18T16:13:10.576Z,90.57
2018-10-18T16:15:49.790Z,85.10
2018-10-18T16:18:25.547Z,83.47
2018-10-18T16:21:01.236Z,82.53
2018-10-18T16:23:37.223Z,82.57
2018-10-18T16:26:13.350Z,75.10
2018-10-18T16:28:49.150Z,80.37
2018-10-18T16:31:25.274Z,83.77
2018-10-18T16:34:01.006Z,83.63
2018-10-18T16:36:36.685Z,95.40
2018-10-18T16:39:13.796Z,113.17
2018-10-18T16:41:49.673Z,86.93
2018-10-18T16:44:25.402Z,105.13
2018-10-18T16:47:01.266Z,92.77
2018-10-18T16:49:36.902Z,107.87
2018-10-18T16:52:12.463Z,96.00
2018-10-18T16:54:48.413Z,84.57
2018-10-18T16:57:24.076Z,98.20
2018-10-18T16:59:59.684Z,80.43
2018-10-18T17:02:35.588Z,88.93
2018-10-18T17:05:11.295Z,78.10
2018-10-18T17:07:53.192Z,86.63
2018-10-18T17:10:29.017Z,80.90
2018-10-18T17:13:05.484Z,84.23
2018-10-18T17:15:51.321Z,75.23
2018-10-18T17:18:26.937Z,71.00
2018-10-18T17:21:02.861Z,71.00
2018-10-18T17:23:38.813Z,64.70
2018-10-18T17:26:14.921Z,72.60
2018-10-18T17:28:50.862Z,63.80
2018-10-18T17:31:26.616Z,76.90
2018-10-18T17:34:02.207Z,69.67
2018-10-18T17:36:37.817Z,67.73
2018-10-18T17:39:13.281Z,57.67
2018-10-18T17:41:48.706Z,65.40
2018-10-18T17:44:24.281Z,60.43
2018-10-18T17:47:00.024Z,53.60
2018-10-18T17:49:35.770Z,58.30
2018-10-18T17:52:11.690Z,62.60
2018-10-18T17:54:47.779Z,53.87
2018-10-18T17:57:23.433Z,53.33
2018-10-18T17:59:59.182Z,56.67
2018-10-18T18:02:35.786Z,65.40
2018-10-18T18:05:13.736Z,65.93
2018-10-18T18:07:51.236Z,65.50
2018-10-18T18:10:27.140Z,68.23
2018-10-18T18:13:09.713Z,63.20
2018-10-18T18:15:45.221Z,65.83
2018-10-18T18:18:21.036Z,79.77
2018-10-18T18:20:56.664Z,63.60
2018-10-18T18:23:32.224Z,55.13
2018-10-18T18:26:07.849Z,57.47
2018-10-18T18:28:43.278Z,53.50
2018-10-18T18:31:18.864Z,69.10
2018-10-18T18:33:59.067Z,58.67
2018-10-18T18:36:34.447Z,59.17
2018-10-18T18:39:11.347Z,48.57
2018-10-18T18:41:47.257Z,55.03
2018-10-18T18:44:23.027Z,54.57
2018-10-18T18:46:58.946Z,65.10
2018-10-18T18:49:34.297Z,64.70
2018-10-18T18:52:10.406Z,57.33
2018-10-18T18:54:45.824Z,62.10
2018-10-18T18:57:35.709Z,64.20
2018-10-18T19:00:11.426Z,57.13
2018-10-18T19:02:52.958Z,61.90
2018-10-18T19:05:39.597Z,61.20
2018-10-18T19:08:15.066Z,65.60
2018-10-18T19:10:50.533Z,72.60
2018-10-18T19:13:26.059Z,65.87
2018-10-18T19:16:01.803Z,69.33
2018-10-18T19:18:37.356Z,75.87
2018-10-18T19:21:13.566Z,64.90
2018-10-18T19:23:49.529Z,82.93
2018-10-18T19:26:25.294Z,67.80
2018-10-18T19:29:01.233Z,67.27
2018-10-18T19:31:37.389Z,66.57
2018-10-18T19:34:12.931Z,64.97
2018-10-18T19:36:48.841Z,70.03
2018-10-18T19:39:24.313Z,72.03
2018-10-18T19:42:01.143Z,75.60
2018-10-18T19:44:37.299Z,71.67
2018-10-18T19:47:13.673Z,60.47
2018-10-18T19:49:49.067Z,69.37
2018-10-18T19:52:25.722Z,71.67
2018-10-18T19:55:02.612Z,77.80
2018-10-18T19:57:38.413Z,79.00
2018-10-18T20:00:14.121Z,67.80
2018-10-18T20:02:49.679Z,76.00
2018-10-18T20:05:25.510Z,73.73
2018-10-18T20:08:02.765Z,75.77
2018-10-18T20:10:39.344Z,73.00
2018-10-18T20:13:15.497Z,77.83
2018-10-18T20:15:51.309Z,77.50
2018-10-18T20:18:27.215Z,87.63
2018-10-18T20:21:02.970Z,73.73
2018-10-18T20:23:39.072Z,85.07
2018-10-18T20:26:15.048Z,80.50
2018-10-18T20:28:50.949Z,79.47
2018-10-18T20:31:27.033Z,84.00
2018-10-18T20:34:02.761Z,85.70
2018-10-18T20:36:38.931Z,80.53
2018-10-18T20:39:14.648Z,80.27
2018-10-18T20:41:50.997Z,79.67
2018-10-18T20:44:26.917Z,87.33
2018-10-18T20:47:03.999Z,84.27
2018-10-18T20:49:39.789Z,86.77
2018-10-18T20:52:15.299Z,93.47
2018-10-18T20:54:51.295Z,88.77
2018-10-18T21:06:45.129Z,102.77
2018-10-18T21:09:21.005Z,96.10
2018-10-18T21:11:56.750Z,103.83
2018-10-18T21:14:32.569Z,95.80
2018-10-18T21:17:08.031Z,102.77
2018-10-18T21:19:43.749Z,108.00
2018-10-18T21:22:19.632Z,103.90
2018-10-18T21:24:55.423Z,117.30
2018-10-18T21:27:31.245Z,111.23
2018-10-18T21:30:07.397Z,115.17
2018-10-18T21:32:42.815Z,107.37
2018-10-18T21:35:45.439Z,105.27
2018-10-18T21:38:21.112Z,107.30
2018-10-18T21:40:56.940Z,124.67
2018-10-18T21:43:32.572Z,105.10
2018-10-18T21:46:08.034Z,114.13
2018-10-18T21:48:43.998Z,102.50
2018-10-18T21:51:19.862Z,103.40
2018-10-18T21:53:55.324Z,100.43
2018-10-18T21:56:30.891Z,96.40
2018-10-18T21:59:06.479Z,104.93
2018-10-18T22:01:42.458Z,104.90
2018-10-18T22:04:18.543Z,105.50
2018-10-18T22:06:53.965Z,101.23
2018-10-18T22:09:29.712Z,99.37
2018-10-18T22:12:06.141Z,105.30
2018-10-18T22:14:41.835Z,105.47
2018-10-18T22:17:17.637Z,106.20
2018-10-18T22:19:53.341Z,111.10
2018-10-18T22:22:28.894Z,115.67
2018-10-18T22:25:04.845Z,124.80
2018-10-18T22:27:40.451Z,102.80
2018-10-18T22:30:16.129Z,117.93
2018-10-18T22:32:51.764Z,104.17
2018-10-18T22:35:32.512Z,107.33
2018-10-18T22:38:08.519Z,111.30
2018-10-18T22:40:54.213Z,116.80
2018-10-18T22:43:30.518Z,117.30
2018-10-18T22:46:06.575Z,113.17
2018-10-18T22:48:42.037Z,115.60
2018-10-18T22:51:17.450Z,114.40
2018-10-18T22:53:53.848Z,117.00
2018-10-18T22:56:29.501Z,120.37
2018-10-18T22:59:05.681Z,118.27
2018-10-18T23:01:41.348Z,119.17
2018-10-18T23:04:17.116Z,109.53
2018-10-18T23:06:52.646Z,114.53
2018-10-18T23:09:28.189Z,117.37
2018-10-18T23:12:03.756Z,108.53
2018-10-18T23:14:39.105Z,122.63
2018-10-18T23:17:14.589Z,138.83
2018-10-18T23:19:50.236Z,113.83
2018-10-18T23:22:25.765Z,123.47
2018-10-18T23:25:01.909Z,125.40
2018-10-18T23:27:37.429Z,120.97
2018-10-18T23:30:15.573Z,133.53
2018-10-18T23:33:03.297Z,119.33
2018-10-18T23:35:45.011Z,116.23
2018-10-18T23:38:20.649Z,122.77
2018-10-18T23:40:56.406Z,111.03
2018-10-18T23:43:31.873Z,112.73
2018-10-18T23:46:07.445Z,118.13
2018-10-18T23:48:43.745Z,112.13
2018-10-18T23:51:19.401Z,99.70
2018-10-18T23:53:54.892Z,119.20
2018-10-18T23:56:30.514Z,111.30
2018-10-18T23:59:07.208Z,113.73
